Погода Отонецна 2 недели

Тверская область, Россия

23 мая-04 июня
  • 23мая
    Сегодня
    +8°
    +22°
    Ясно и безоблачно
    ВремяПогодаТемператураВлажностьДавлениеВетер, м/сВероятность осадков
    00:00Ясно и безоблачно+11°C57 %749 мм3.2 м/с2 %
    03:00Ясно и безоблачно+9°C63 %750 мм3.1 м/с2 %
    06:00Ясно и безоблачно+9°C67 %751 мм2.9 м/с2 %
    09:00Ясно и безоблачно+16°C52 %752 мм2.8 м/с2 %
    12:00Ясно и безоблачно+21°C35 %753 мм3.7 м/с2 %
    15:00Ясно и безоблачно+21°C34 %752 мм3.4 м/с2 %
    18:00Ясно и безоблачно+22°C36 %752 мм3.7 м/с2 %
    21:00Ясно и безоблачно+16°C51 %752 мм2.4 м/с2 %
  • 24мая
    Пятница
    +7°
    +22°
    Ясно и безоблачно
    ВремяПогодаТемператураВлажностьДавлениеВетер, м/сВероятность осадков
    00:00Ясно и безоблачно+11°C62 %753 мм2.4 м/с2 %
    03:00Ясно и безоблачно+9°C68 %754 мм2.5 м/с2 %
    06:00Ясно и безоблачно+9°C69 %755 мм2.4 м/с2 %
    09:00Ясно и безоблачно+17°C47 %756 мм2.7 м/с2 %
    12:00Ясно и безоблачно+20°C35 %755 мм4.1 м/с2 %
    15:00Ясно и безоблачно+21°C27 %754 мм4.3 м/с2 %
    18:00Ясно и безоблачно+22°C29 %754 мм3.5 м/с2 %
    21:00Ясно и безоблачно+16°C48 %753 мм2.7 м/с2 %
  • 25мая
    Суббота
    +9°
    +24°
    Ясно и безоблачно
    ВремяПогодаТемператураВлажностьДавлениеВетер, м/сВероятность осадков
    00:00Ясно и безоблачно+10°C56 %753 мм3.0 м/с2 %
    03:00Ясно и безоблачно+8°C62 %753 мм2.9 м/с2 %
    06:00Ясно и безоблачно+9°C70 %753 мм2.9 м/с2 %
    09:00Ясно и безоблачно+17°C53 %753 мм2.8 м/с2 %
    12:00Ясно и безоблачно+21°C41 %752 мм3.2 м/с2 %
    15:00Ясно и безоблачно+24°C37 %751 мм3.4 м/с2 %
    18:00Ясно и безоблачно+24°C38 %750 мм2.8 м/с2 %
    21:00Ясно и безоблачно+18°C61 %749 мм2.3 м/с2 %
  • 26мая
    Воскресенье
    +11°
    +25°
    Небольшая облачность и лёгкий дождик
    ВремяПогодаТемператураВлажностьДавлениеВетер, м/сВероятность осадков
    00:00Ясно и безоблачно+11°C74 %749 мм2.2 м/с2 %
    03:00Ясно и безоблачно+9°C81 %749 мм2.1 м/с2 %
    06:00Ясно и безоблачно+11°C78 %749 мм2.1 м/с4 %
    09:00Ясно и безоблачно+21°C57 %749 мм1.9 м/с5 %
    12:00Облачно с прояснениями+25°C36 %749 мм2.3 м/с29 %
    15:00Небольшая облачность и лёгкий дождик+26°C38 %749 мм2.5 м/с52 %
    18:00Облачно с прояснениями+25°C48 %749 мм3.3 м/с33 %
    21:00Практически безоблачно+19°C78 %749 мм2.2 м/с14 %
Мы используем cookies
Соглашаюсь